sensor_id;sensor_type;location;lat;lon;timestamp;P1;durP1;ratioP1;P2;durP2;ratioP2
18738;SDS011;9498;51.862;19.460;2023-02-26T00:01:24;13.03;;;4.13;;
18738;SDS011;9498;51.862;19.460;2023-02-26T00:03:53;8.80;;;3.97;;
18738;SDS011;9498;51.862;19.460;2023-02-26T00:06:20;12.53;;;3.63;;
18738;SDS011;9498;51.862;19.460;2023-02-26T00:08:48;7.97;;;4.00;;
18738;SDS011;9498;51.862;19.460;2023-02-26T00:11:15;10.40;;;3.97;;
18738;SDS011;9498;51.862;19.460;2023-02-26T00:13:43;11.73;;;3.87;;
18738;SDS011;9498;51.862;19.460;2023-02-26T00:16:12;7.27;;;3.90;;
18738;SDS011;9498;51.862;19.460;2023-02-26T00:18:44;14.37;;;4.27;;
18738;SDS011;9498;51.862;19.460;2023-02-26T00:21:15;8.07;;;4.10;;
18738;SDS011;9498;51.862;19.460;2023-02-26T00:23:43;13.93;;;4.87;;
18738;SDS011;9498;51.862;19.460;2023-02-26T00:26:10;13.83;;;4.30;;
18738;SDS011;9498;51.862;19.460;2023-02-26T00:28:37;8.57;;;3.90;;
18738;SDS011;9498;51.862;19.460;2023-02-26T00:31:05;14.90;;;5.20;;
18738;SDS011;9498;51.862;19.460;2023-02-26T00:33:32;9.67;;;4.30;;
18738;SDS011;9498;51.862;19.460;2023-02-26T00:36:02;10.40;;;3.93;;
18738;SDS011;9498;51.862;19.460;2023-02-26T00:38:34;11.63;;;4.73;;
18738;SDS011;9498;51.862;19.460;2023-02-26T00:41:02;14.10;;;4.40;;
18738;SDS011;9498;51.862;19.460;2023-02-26T00:43:30;10.90;;;4.37;;
18738;SDS011;9498;51.862;19.460;2023-02-26T00:45:58;12.87;;;4.47;;
18738;SDS011;9498;51.862;19.460;2023-02-26T00:48:34;14.77;;;5.00;;
18738;SDS011;9498;51.862;19.460;2023-02-26T00:51:06;8.53;;;4.13;;
18738;SDS011;9498;51.862;19.460;2023-02-26T00:53:38;12.05;;;4.90;;
18738;SDS011;9498;51.862;19.460;2023-02-26T00:56:09;12.27;;;4.43;;
18738;SDS011;9498;51.862;19.460;2023-02-26T00:58:36;12.70;;;4.53;;
18738;SDS011;9498;51.862;19.460;2023-02-26T01:01:04;12.43;;;3.73;;
18738;SDS011;9498;51.862;19.460;2023-02-26T01:03:31;11.93;;;4.00;;
18738;SDS011;9498;51.862;19.460;2023-02-26T01:05:58;11.90;;;4.27;;
18738;SDS011;9498;51.862;19.460;2023-02-26T01:08:27;11.60;;;4.20;;
18738;SDS011;9498;51.862;19.460;2023-02-26T01:10:59;14.30;;;4.47;;
18738;SDS011;9498;51.862;19.460;2023-02-26T01:13:26;10.73;;;4.17;;
18738;SDS011;9498;51.862;19.460;2023-02-26T01:15:54;8.50;;;4.23;;
18738;SDS011;9498;51.862;19.460;2023-02-26T01:18:25;16.60;;;4.70;;
18738;SDS011;9498;51.862;19.460;2023-02-26T01:20:55;11.13;;;4.63;;
18738;SDS011;9498;51.862;19.460;2023-02-26T01:23:23;13.93;;;4.82;;
18738;SDS011;9498;51.862;19.460;2023-02-26T01:25:52;11.67;;;4.83;;
18738;SDS011;9498;51.862;19.460;2023-02-26T01:28:23;14.50;;;4.77;;
18738;SDS011;9498;51.862;19.460;2023-02-26T01:30:51;16.27;;;4.47;;
18738;SDS011;9498;51.862;19.460;2023-02-26T01:33:21;13.90;;;4.10;;
18738;SDS011;9498;51.862;19.460;2023-02-26T01:35:52;12.37;;;4.20;;
18738;SDS011;9498;51.862;19.460;2023-02-26T01:38:21;12.03;;;4.40;;
18738;SDS011;9498;51.862;19.460;2023-02-26T01:43:52;7.97;;;4.10;;
18738;SDS011;9498;51.862;19.460;2023-02-26T01:46:25;8.37;;;4.03;;
18738;SDS011;9498;51.862;19.460;2023-02-26T01:48:54;12.37;;;3.90;;
18738;SDS011;9498;51.862;19.460;2023-02-26T01:54:08;7.50;;;4.10;;
18738;SDS011;9498;51.862;19.460;2023-02-26T01:56:36;7.63;;;3.80;;
18738;SDS011;9498;51.862;19.460;2023-02-26T01:59:05;10.67;;;4.10;;
18738;SDS011;9498;51.862;19.460;2023-02-26T02:01:34;9.43;;;3.67;;
18738;SDS011;9498;51.862;19.460;2023-02-26T02:04:02;7.80;;;3.57;;
18738;SDS011;9498;51.862;19.460;2023-02-26T02:06:30;10.03;;;3.90;;
18738;SDS011;9498;51.862;19.460;2023-02-26T02:08:57;7.20;;;3.43;;
18738;SDS011;9498;51.862;19.460;2023-02-26T02:11:24;8.63;;;3.70;;
18738;SDS011;9498;51.862;19.460;2023-02-26T02:14:00;7.93;;;3.53;;
18738;SDS011;9498;51.862;19.460;2023-02-26T02:16:35;8.57;;;3.37;;
18738;SDS011;9498;51.862;19.460;2023-02-26T02:19:07;9.02;;;3.90;;
18738;SDS011;9498;51.862;19.460;2023-02-26T02:21:49;6.50;;;3.17;;
18738;SDS011;9498;51.862;19.460;2023-02-26T02:24:22;6.67;;;2.80;;
18738;SDS011;9498;51.862;19.460;2023-02-26T02:26:59;9.13;;;3.87;;
18738;SDS011;9498;51.862;19.460;2023-02-26T02:29:40;5.37;;;3.00;;
18738;SDS011;9498;51.862;19.460;2023-02-26T02:32:13;6.50;;;3.17;;
18738;SDS011;9498;51.862;19.460;2023-02-26T02:34:44;6.43;;;2.90;;
18738;SDS011;9498;51.862;19.460;2023-02-26T02:37:13;10.60;;;3.40;;
18738;SDS011;9498;51.862;19.460;2023-02-26T02:39:43;9.50;;;3.57;;
18738;SDS011;9498;51.862;19.460;2023-02-26T02:42:16;5.77;;;3.03;;
18738;SDS011;9498;51.862;19.460;2023-02-26T02:44:47;7.37;;;2.90;;
18738;SDS011;9498;51.862;19.460;2023-02-26T02:47:17;8.50;;;3.58;;
18738;SDS011;9498;51.862;19.460;2023-02-26T02:49:47;5.93;;;3.20;;
18738;SDS011;9498;51.862;19.460;2023-02-26T02:52:18;8.93;;;2.70;;
18738;SDS011;9498;51.862;19.460;2023-02-26T02:54:48;5.87;;;3.07;;
18738;SDS011;9498;51.862;19.460;2023-02-26T02:57:18;7.87;;;3.30;;
18738;SDS011;9498;51.862;19.460;2023-02-26T02:59:47;7.67;;;2.40;;
18738;SDS011;9498;51.862;19.460;2023-02-26T03:02:17;4.73;;;2.50;;
18738;SDS011;9498;51.862;19.460;2023-02-26T03:04:47;9.10;;;2.87;;
18738;SDS011;9498;51.862;19.460;2023-02-26T03:07:14;5.00;;;2.73;;
18738;SDS011;9498;51.862;19.460;2023-02-26T03:09:41;6.27;;;2.53;;
18738;SDS011;9498;51.862;19.460;2023-02-26T03:12:09;6.70;;;3.00;;
18738;SDS011;9498;51.862;19.460;2023-02-26T03:14:36;9.63;;;2.67;;
18738;SDS011;9498;51.862;19.460;2023-02-26T03:17:10;7.67;;;3.17;;
18738;SDS011;9498;51.862;19.460;2023-02-26T03:19:47;7.33;;;3.00;;
18738;SDS011;9498;51.862;19.460;2023-02-26T03:22:16;7.67;;;3.23;;
18738;SDS011;9498;51.862;19.460;2023-02-26T03:24:45;7.47;;;3.47;;
18738;SDS011;9498;51.862;19.460;2023-02-26T03:27:15;8.13;;;2.80;;
18738;SDS011;9498;51.862;19.460;2023-02-26T03:29:46;9.33;;;2.93;;
18738;SDS011;9498;51.862;19.460;2023-02-26T03:32:17;7.60;;;2.87;;
18738;SDS011;9498;51.862;19.460;2023-02-26T03:34:47;10.80;;;2.53;;
18738;SDS011;9498;51.862;19.460;2023-02-26T03:37:16;7.40;;;2.80;;
18738;SDS011;9498;51.862;19.460;2023-02-26T03:39:46;6.83;;;3.03;;
18738;SDS011;9498;51.862;19.460;2023-02-26T03:42:16;6.83;;;3.17;;
18738;SDS011;9498;51.862;19.460;2023-02-26T03:44:46;7.30;;;3.33;;
18738;SDS011;9498;51.862;19.460;2023-02-26T03:47:14;9.33;;;2.97;;
18738;SDS011;9498;51.862;19.460;2023-02-26T03:49:43;6.63;;;3.10;;
18738;SDS011;9498;51.862;19.460;2023-02-26T03:52:12;5.83;;;2.67;;
18738;SDS011;9498;51.862;19.460;2023-02-26T03:54:40;4.87;;;2.77;;
18738;SDS011;9498;51.862;19.460;2023-02-26T03:57:08;10.83;;;3.37;;
18738;SDS011;9498;51.862;19.460;2023-02-26T03:59:35;5.83;;;2.80;;
18738;SDS011;9498;51.862;19.460;2023-02-26T04:02:03;7.17;;;2.70;;
18738;SDS011;9498;51.862;19.460;2023-02-26T04:04:32;6.17;;;2.73;;
18738;SDS011;9498;51.862;19.460;2023-02-26T04:07:00;8.93;;;2.83;;
18738;SDS011;9498;51.862;19.460;2023-02-26T04:09:29;8.00;;;3.33;;
18738;SDS011;9498;51.862;19.460;2023-02-26T04:11:56;4.67;;;2.70;;
18738;SDS011;9498;51.862;19.460;2023-02-26T04:14:24;7.20;;;3.13;;
18738;SDS011;9498;51.862;19.460;2023-02-26T04:16:51;7.47;;;2.83;;
18738;SDS011;9498;51.862;19.460;2023-02-26T04:19:18;5.17;;;3.00;;
18738;SDS011;9498;51.862;19.460;2023-02-26T04:21:45;5.77;;;2.90;;
18738;SDS011;9498;51.862;19.460;2023-02-26T04:24:13;6.87;;;2.70;;
18738;SDS011;9498;51.862;19.460;2023-02-26T04:26:41;11.83;;;2.97;;
18738;SDS011;9498;51.862;19.460;2023-02-26T04:29:09;6.33;;;2.80;;
18738;SDS011;9498;51.862;19.460;2023-02-26T04:31:36;5.57;;;2.93;;
18738;SDS011;9498;51.862;19.460;2023-02-26T04:34:03;7.50;;;2.77;;
18738;SDS011;9498;51.862;19.460;2023-02-26T04:36:31;8.30;;;3.00;;
18738;SDS011;9498;51.862;19.460;2023-02-26T04:38:58;6.80;;;3.03;;
18738;SDS011;9498;51.862;19.460;2023-02-26T04:41:25;9.60;;;3.10;;
18738;SDS011;9498;51.862;19.460;2023-02-26T04:43:54;7.90;;;3.37;;
18738;SDS011;9498;51.862;19.460;2023-02-26T04:46:21;6.60;;;3.20;;
18738;SDS011;9498;51.862;19.460;2023-02-26T04:48:48;6.37;;;3.00;;
18738;SDS011;9498;51.862;19.460;2023-02-26T04:51:15;5.93;;;2.63;;
18738;SDS011;9498;51.862;19.460;2023-02-26T04:53:43;5.87;;;3.10;;
18738;SDS011;9498;51.862;19.460;2023-02-26T04:56:10;5.80;;;2.37;;
18738;SDS011;9498;51.862;19.460;2023-02-26T04:58:37;7.23;;;2.93;;
18738;SDS011;9498;51.862;19.460;2023-02-26T05:01:06;8.10;;;3.00;;
18738;SDS011;9498;51.862;19.460;2023-02-26T05:03:33;5.97;;;3.10;;
18738;SDS011;9498;51.862;19.460;2023-02-26T05:06:00;6.33;;;2.67;;
18738;SDS011;9498;51.862;19.460;2023-02-26T05:08:28;9.93;;;3.42;;
18738;SDS011;9498;51.862;19.460;2023-02-26T05:10:55;4.87;;;3.10;;
18738;SDS011;9498;51.862;19.460;2023-02-26T05:13:22;6.10;;;2.70;;
18738;SDS011;9498;51.862;19.460;2023-02-26T05:15:51;7.53;;;2.83;;
18738;SDS011;9498;51.862;19.460;2023-02-26T05:18:20;10.97;;;3.20;;
18738;SDS011;9498;51.862;19.460;2023-02-26T05:20:50;9.37;;;2.97;;
18738;SDS011;9498;51.862;19.460;2023-02-26T05:23:17;5.30;;;3.03;;
18738;SDS011;9498;51.862;19.460;2023-02-26T05:25:45;5.50;;;2.90;;
18738;SDS011;9498;51.862;19.460;2023-02-26T05:28:12;6.77;;;3.00;;
18738;SDS011;9498;51.862;19.460;2023-02-26T05:30:40;6.90;;;2.90;;
18738;SDS011;9498;51.862;19.460;2023-02-26T05:33:07;5.27;;;2.67;;
18738;SDS011;9498;51.862;19.460;2023-02-26T05:35:36;5.95;;;2.80;;
18738;SDS011;9498;51.862;19.460;2023-02-26T05:38:03;7.80;;;2.83;;
18738;SDS011;9498;51.862;19.460;2023-02-26T05:40:30;7.00;;;3.33;;
18738;SDS011;9498;51.862;19.460;2023-02-26T05:42:57;4.30;;;2.77;;
18738;SDS011;9498;51.862;19.460;2023-02-26T05:45:25;5.43;;;2.77;;
18738;SDS011;9498;51.862;19.460;2023-02-26T05:47:52;6.87;;;2.63;;
18738;SDS011;9498;51.862;19.460;2023-02-26T05:50:19;10.37;;;2.80;;
18738;SDS011;9498;51.862;19.460;2023-02-26T05:52:48;5.53;;;2.50;;
18738;SDS011;9498;51.862;19.460;2023-02-26T05:55:15;5.87;;;3.10;;
18738;SDS011;9498;51.862;19.460;2023-02-26T05:57:42;6.73;;;2.73;;
18738;SDS011;9498;51.862;19.460;2023-02-26T06:00:10;5.83;;;2.73;;
18738;SDS011;9498;51.862;19.460;2023-02-26T06:02:37;10.40;;;3.30;;
18738;SDS011;9498;51.862;19.460;2023-02-26T06:05:05;12.17;;;3.37;;
18738;SDS011;9498;51.862;19.460;2023-02-26T06:07:33;5.83;;;3.20;;
18738;SDS011;9498;51.862;19.460;2023-02-26T06:10:01;4.90;;;2.60;;
18738;SDS011;9498;51.862;19.460;2023-02-26T06:12:29;6.87;;;3.10;;
18738;SDS011;9498;51.862;19.460;2023-02-26T06:14:56;6.13;;;2.73;;
18738;SDS011;9498;51.862;19.460;2023-02-26T06:17:23;7.37;;;2.93;;
18738;SDS011;9498;51.862;19.460;2023-02-26T06:19:51;9.23;;;3.07;;
18738;SDS011;9498;51.862;19.460;2023-02-26T06:22:18;8.00;;;3.33;;
18738;SDS011;9498;51.862;19.460;2023-02-26T06:24:45;6.10;;;3.20;;
18738;SDS011;9498;51.862;19.460;2023-02-26T06:27:14;7.37;;;2.87;;
18738;SDS011;9498;51.862;19.460;2023-02-26T06:29:41;7.43;;;3.67;;
18738;SDS011;9498;51.862;19.460;2023-02-26T06:32:08;5.30;;;3.10;;
18738;SDS011;9498;51.862;19.460;2023-02-26T06:34:35;9.77;;;3.47;;
18738;SDS011;9498;51.862;19.460;2023-02-26T06:37:03;5.83;;;2.93;;
18738;SDS011;9498;51.862;19.460;2023-02-26T06:39:30;7.23;;;3.53;;
18738;SDS011;9498;51.862;19.460;2023-02-26T06:41:57;8.67;;;3.27;;
18738;SDS011;9498;51.862;19.460;2023-02-26T06:44:26;10.67;;;2.67;;
18738;SDS011;9498;51.862;19.460;2023-02-26T06:46:53;4.93;;;2.87;;
18738;SDS011;9498;51.862;19.460;2023-02-26T06:49:20;6.80;;;3.20;;
18738;SDS011;9498;51.862;19.460;2023-02-26T06:51:48;4.97;;;2.87;;
18738;SDS011;9498;51.862;19.460;2023-02-26T06:54:15;6.33;;;3.37;;
18738;SDS011;9498;51.862;19.460;2023-02-26T06:56:42;8.13;;;2.70;;
18738;SDS011;9498;51.862;19.460;2023-02-26T06:59:09;8.97;;;2.90;;
18738;SDS011;9498;51.862;19.460;2023-02-26T07:01:38;7.77;;;3.00;;
18738;SDS011;9498;51.862;19.460;2023-02-26T07:04:05;10.10;;;3.90;;
18738;SDS011;9498;51.862;19.460;2023-02-26T07:06:32;7.37;;;3.30;;
18738;SDS011;9498;51.862;19.460;2023-02-26T07:08:59;6.97;;;3.10;;
18738;SDS011;9498;51.862;19.460;2023-02-26T07:11:27;6.00;;;3.23;;
18738;SDS011;9498;51.862;19.460;2023-02-26T07:13:54;7.43;;;3.47;;
18738;SDS011;9498;51.862;19.460;2023-02-26T07:16:21;5.00;;;3.00;;
18738;SDS011;9498;51.862;19.460;2023-02-26T07:18:50;4.10;;;2.93;;
18738;SDS011;9498;51.862;19.460;2023-02-26T07:21:17;7.77;;;3.37;;
18738;SDS011;9498;51.862;19.460;2023-02-26T07:23:44;5.93;;;3.03;;
18738;SDS011;9498;51.862;19.460;2023-02-26T07:26:11;10.67;;;3.73;;
18738;SDS011;9498;51.862;19.460;2023-02-26T07:28:38;8.13;;;3.70;;
18738;SDS011;9498;51.862;19.460;2023-02-26T07:31:05;9.47;;;3.90;;
18738;SDS011;9498;51.862;19.460;2023-02-26T07:33:33;7.67;;;3.47;;
18738;SDS011;9498;51.862;19.460;2023-02-26T07:36:01;5.37;;;3.57;;
18738;SDS011;9498;51.862;19.460;2023-02-26T07:38:29;9.00;;;4.27;;
18738;SDS011;9498;51.862;19.460;2023-02-26T07:40:56;8.50;;;3.17;;
18738;SDS011;9498;51.862;19.460;2023-02-26T07:43:23;6.43;;;2.97;;
18738;SDS011;9498;51.862;19.460;2023-02-26T07:45:51;8.60;;;4.13;;
18738;SDS011;9498;51.862;19.460;2023-02-26T07:48:18;5.27;;;3.17;;
18738;SDS011;9498;51.862;19.460;2023-02-26T07:50:46;5.97;;;3.17;;
18738;SDS011;9498;51.862;19.460;2023-02-26T07:53:14;10.67;;;3.50;;
18738;SDS011;9498;51.862;19.460;2023-02-26T07:55:41;7.43;;;3.20;;
18738;SDS011;9498;51.862;19.460;2023-02-26T07:58:08;6.50;;;3.30;;
18738;SDS011;9498;51.862;19.460;2023-02-26T08:00:36;7.07;;;3.40;;
18738;SDS011;9498;51.862;19.460;2023-02-26T08:03:03;5.50;;;3.30;;
18738;SDS011;9498;51.862;19.460;2023-02-26T08:05:31;8.40;;;2.93;;
18738;SDS011;9498;51.862;19.460;2023-02-26T08:07:59;8.10;;;3.37;;
18738;SDS011;9498;51.862;19.460;2023-02-26T08:10:28;7.10;;;3.03;;
18738;SDS011;9498;51.862;19.460;2023-02-26T08:12:56;5.23;;;2.70;;
18738;SDS011;9498;51.862;19.460;2023-02-26T08:15:23;6.70;;;3.13;;
18738;SDS011;9498;51.862;19.460;2023-02-26T08:17:50;6.77;;;3.40;;
18738;SDS011;9498;51.862;19.460;2023-02-26T08:20:18;5.87;;;3.50;;
18738;SDS011;9498;51.862;19.460;2023-02-26T08:22:45;7.10;;;2.97;;
18738;SDS011;9498;51.862;19.460;2023-02-26T08:25:13;6.77;;;3.80;;
18738;SDS011;9498;51.862;19.460;2023-02-26T08:27:41;11.27;;;3.07;;
18738;SDS011;9498;51.862;19.460;2023-02-26T08:30:09;4.57;;;3.10;;
18738;SDS011;9498;51.862;19.460;2023-02-26T08:32:36;9.70;;;3.73;;
18738;SDS011;9498;51.862;19.460;2023-02-26T08:35:06;12.97;;;4.30;;
18738;SDS011;9498;51.862;19.460;2023-02-26T08:37:33;8.67;;;3.50;;
18738;SDS011;9498;51.862;19.460;2023-02-26T08:40:01;7.33;;;3.90;;
18738;SDS011;9498;51.862;19.460;2023-02-26T08:42:28;6.77;;;3.53;;
18738;SDS011;9498;51.862;19.460;2023-02-26T08:44:57;7.13;;;3.63;;
18738;SDS011;9498;51.862;19.460;2023-02-26T08:47:24;12.33;;;4.27;;
18738;SDS011;9498;51.862;19.460;2023-02-26T08:49:51;12.93;;;4.33;;
18738;SDS011;9498;51.862;19.460;2023-02-26T08:52:19;8.40;;;3.27;;
18738;SDS011;9498;51.862;19.460;2023-02-26T08:54:46;9.10;;;3.47;;
18738;SDS011;9498;51.862;19.460;2023-02-26T08:57:13;6.17;;;3.23;;
18738;SDS011;9498;51.862;19.460;2023-02-26T08:59:40;7.07;;;2.97;;
18738;SDS011;9498;51.862;19.460;2023-02-26T09:02:10;9.03;;;2.97;;
18738;SDS011;9498;51.862;19.460;2023-02-26T09:04:37;7.67;;;3.10;;
18738;SDS011;9498;51.862;19.460;2023-02-26T09:07:05;4.50;;;2.90;;
18738;SDS011;9498;51.862;19.460;2023-02-26T09:09:32;5.90;;;2.97;;
18738;SDS011;9498;51.862;19.460;2023-02-26T09:11:59;5.67;;;3.00;;
18738;SDS011;9498;51.862;19.460;2023-02-26T09:14:27;4.80;;;2.90;;
18738;SDS011;9498;51.862;19.460;2023-02-26T09:16:54;5.23;;;2.67;;
18738;SDS011;9498;51.862;19.460;2023-02-26T09:19:23;5.30;;;2.70;;
18738;SDS011;9498;51.862;19.460;2023-02-26T09:21:50;5.07;;;3.20;;
18738;SDS011;9498;51.862;19.460;2023-02-26T09:24:17;7.10;;;2.80;;
18738;SDS011;9498;51.862;19.460;2023-02-26T09:26:44;13.00;;;3.03;;
18738;SDS011;9498;51.862;19.460;2023-02-26T09:29:11;4.27;;;2.40;;
18738;SDS011;9498;51.862;19.460;2023-02-26T09:31:39;7.23;;;2.60;;
18738;SDS011;9498;51.862;19.460;2023-02-26T09:34:06;8.00;;;3.00;;
18738;SDS011;9498;51.862;19.460;2023-02-26T09:36:34;6.17;;;2.73;;
18738;SDS011;9498;51.862;19.460;2023-02-26T09:39:03;7.93;;;2.83;;
18738;SDS011;9498;51.862;19.460;2023-02-26T09:41:30;3.80;;;2.60;;
18738;SDS011;9498;51.862;19.460;2023-02-26T09:44:03;5.97;;;2.80;;
18738;SDS011;9498;51.862;19.460;2023-02-26T09:46:35;3.93;;;2.30;;
18738;SDS011;9498;51.862;19.460;2023-02-26T09:49:20;3.90;;;2.20;;
18738;SDS011;9498;51.862;19.460;2023-02-26T09:51:50;7.73;;;2.87;;
18738;SDS011;9498;51.862;19.460;2023-02-26T09:54:21;7.43;;;3.07;;
18738;SDS011;9498;51.862;19.460;2023-02-26T09:56:49;8.93;;;2.87;;
18738;SDS011;9498;51.862;19.460;2023-02-26T09:59:16;8.30;;;2.80;;
18738;SDS011;9498;51.862;19.460;2023-02-26T10:01:45;7.37;;;2.60;;
18738;SDS011;9498;51.862;19.460;2023-02-26T10:04:15;10.93;;;2.87;;
18738;SDS011;9498;51.862;19.460;2023-02-26T10:06:50;5.57;;;2.73;;
18738;SDS011;9498;51.862;19.460;2023-02-26T10:09:24;8.17;;;2.73;;
18738;SDS011;9498;51.862;19.460;2023-02-26T10:11:55;6.73;;;2.63;;
18738;SDS011;9498;51.862;19.460;2023-02-26T10:14:25;7.80;;;3.17;;
18738;SDS011;9498;51.862;19.460;2023-02-26T10:16:55;5.87;;;3.17;;
18738;SDS011;9498;51.862;19.460;2023-02-26T10:19:25;6.97;;;3.43;;
18738;SDS011;9498;51.862;19.460;2023-02-26T10:21:53;8.27;;;3.27;;
18738;SDS011;9498;51.862;19.460;2023-02-26T10:24:25;7.25;;;3.05;;
18738;SDS011;9498;51.862;19.460;2023-02-26T10:26:54;9.77;;;3.53;;
18738;SDS011;9498;51.862;19.460;2023-02-26T10:29:23;8.37;;;3.23;;
18738;SDS011;9498;51.862;19.460;2023-02-26T10:31:56;7.05;;;3.53;;
18738;SDS011;9498;51.862;19.460;2023-02-26T10:34:27;7.30;;;3.90;;
18738;SDS011;9498;51.862;19.460;2023-02-26T10:36:57;11.77;;;4.13;;
18738;SDS011;9498;51.862;19.460;2023-02-26T10:39:29;9.83;;;4.20;;
18738;SDS011;9498;51.862;19.460;2023-02-26T10:41:58;7.10;;;3.37;;
18738;SDS011;9498;51.862;19.460;2023-02-26T10:44:27;7.53;;;3.67;;
18738;SDS011;9498;51.862;19.460;2023-02-26T10:46:56;8.53;;;3.90;;
18738;SDS011;9498;51.862;19.460;2023-02-26T10:49:31;9.65;;;3.80;;
18738;SDS011;9498;51.862;19.460;2023-02-26T10:52:08;6.63;;;3.70;;
18738;SDS011;9498;51.862;19.460;2023-02-26T10:54:39;6.50;;;3.13;;
18738;SDS011;9498;51.862;19.460;2023-02-26T10:57:08;4.53;;;2.50;;
18738;SDS011;9498;51.862;19.460;2023-02-26T10:59:40;6.87;;;2.10;;
18738;SDS011;9498;51.862;19.460;2023-02-26T11:02:27;4.30;;;2.60;;
18738;SDS011;9498;51.862;19.460;2023-02-26T11:04:57;3.73;;;1.90;;
18738;SDS011;9498;51.862;19.460;2023-02-26T11:07:24;6.13;;;2.27;;
18738;SDS011;9498;51.862;19.460;2023-02-26T11:09:54;5.70;;;2.50;;
18738;SDS011;9498;51.862;19.460;2023-02-26T11:12:22;6.30;;;2.50;;
18738;SDS011;9498;51.862;19.460;2023-02-26T11:14:49;3.93;;;2.47;;
18738;SDS011;9498;51.862;19.460;2023-02-26T11:17:17;5.17;;;2.70;;
18738;SDS011;9498;51.862;19.460;2023-02-26T11:19:45;5.30;;;2.77;;
18738;SDS011;9498;51.862;19.460;2023-02-26T11:22:16;10.33;;;3.10;;
18738;SDS011;9498;51.862;19.460;2023-02-26T11:24:44;3.90;;;2.40;;
18738;SDS011;9498;51.862;19.460;2023-02-26T11:27:15;5.90;;;2.20;;
18738;SDS011;9498;51.862;19.460;2023-02-26T11:29:45;4.73;;;2.10;;
18738;SDS011;9498;51.862;19.460;2023-02-26T11:32:15;8.43;;;2.17;;
18738;SDS011;9498;51.862;19.460;2023-02-26T11:34:45;5.70;;;2.13;;
18738;SDS011;9498;51.862;19.460;2023-02-26T11:37:12;6.60;;;2.67;;
18738;SDS011;9498;51.862;19.460;2023-02-26T11:39:44;5.50;;;2.33;;
18738;SDS011;9498;51.862;19.460;2023-02-26T11:42:14;5.77;;;2.40;;
18738;SDS011;9498;51.862;19.460;2023-02-26T11:44:43;5.60;;;2.20;;
18738;SDS011;9498;51.862;19.460;2023-02-26T11:47:11;5.97;;;2.67;;
18738;SDS011;9498;51.862;19.460;2023-02-26T11:49:40;8.20;;;2.33;;
18738;SDS011;9498;51.862;19.460;2023-02-26T11:52:19;5.10;;;2.80;;
18738;SDS011;9498;51.862;19.460;2023-02-26T11:54:48;5.83;;;2.23;;
18738;SDS011;9498;51.862;19.460;2023-02-26T11:57:18;6.47;;;2.47;;
18738;SDS011;9498;51.862;19.460;2023-02-26T11:59:47;3.07;;;2.07;;
18738;SDS011;9498;51.862;19.460;2023-02-26T12:02:17;2.93;;;1.90;;
18738;SDS011;9498;51.862;19.460;2023-02-26T12:04:44;2.93;;;1.87;;
18738;SDS011;9498;51.862;19.460;2023-02-26T12:07:14;4.70;;;2.33;;
18738;SDS011;9498;51.862;19.460;2023-02-26T12:09:42;4.80;;;1.60;;
18738;SDS011;9498;51.862;19.460;2023-02-26T12:12:13;4.07;;;2.20;;
18738;SDS011;9498;51.862;19.460;2023-02-26T12:15:02;2.40;;;1.80;;
18738;SDS011;9498;51.862;19.460;2023-02-26T12:17:35;5.40;;;2.40;;
18738;SDS011;9498;51.862;19.460;2023-02-26T12:20:09;3.57;;;2.20;;
18738;SDS011;9498;51.862;19.460;2023-02-26T12:22:46;4.37;;;2.43;;
18738;SDS011;9498;51.862;19.460;2023-02-26T12:28:34;5.47;;;2.60;;
18738;SDS011;9498;51.862;19.460;2023-02-26T12:31:09;6.27;;;2.37;;
18738;SDS011;9498;51.862;19.460;2023-02-26T12:33:42;7.33;;;2.60;;
18738;SDS011;9498;51.862;19.460;2023-02-26T12:36:14;4.07;;;2.17;;
18738;SDS011;9498;51.862;19.460;2023-02-26T12:38:47;5.33;;;1.70;;
18738;SDS011;9498;51.862;19.460;2023-02-26T12:41:21;2.60;;;2.00;;
18738;SDS011;9498;51.862;19.460;2023-02-26T12:43:50;6.57;;;2.37;;
18738;SDS011;9498;51.862;19.460;2023-02-26T12:46:34;3.63;;;2.00;;
18738;SDS011;9498;51.862;19.460;2023-02-26T12:52:29;4.87;;;2.00;;
18738;SDS011;9498;51.862;19.460;2023-02-26T12:55:08;3.97;;;2.03;;
18738;SDS011;9498;51.862;19.460;2023-02-26T12:57:48;6.10;;;2.40;;
18738;SDS011;9498;51.862;19.460;2023-02-26T13:00:22;6.37;;;2.40;;
18738;SDS011;9498;51.862;19.460;2023-02-26T13:05:55;4.77;;;2.73;;
18738;SDS011;9498;51.862;19.460;2023-02-26T13:08:25;7.53;;;2.23;;
18738;SDS011;9498;51.862;19.460;2023-02-26T13:11:00;6.20;;;2.67;;
18738;SDS011;9498;51.862;19.460;2023-02-26T13:13:45;6.30;;;2.63;;
18738;SDS011;9498;51.862;19.460;2023-02-26T13:16:20;5.10;;;2.50;;
18738;SDS011;9498;51.862;19.460;2023-02-26T13:18:52;3.57;;;2.40;;
18738;SDS011;9498;51.862;19.460;2023-02-26T13:21:24;6.47;;;3.27;;
18738;SDS011;9498;51.862;19.460;2023-02-26T13:23:52;12.57;;;3.33;;
18738;SDS011;9498;51.862;19.460;2023-02-26T13:26:20;7.43;;;2.93;;
18738;SDS011;9498;51.862;19.460;2023-02-26T13:28:49;8.03;;;3.30;;
18738;SDS011;9498;51.862;19.460;2023-02-26T13:31:19;10.45;;;3.63;;
18738;SDS011;9498;51.862;19.460;2023-02-26T13:33:47;8.50;;;3.30;;
18738;SDS011;9498;51.862;19.460;2023-02-26T13:36:17;6.27;;;3.30;;
18738;SDS011;9498;51.862;19.460;2023-02-26T13:38:50;7.80;;;3.03;;
18738;SDS011;9498;51.862;19.460;2023-02-26T13:41:19;7.93;;;3.70;;
18738;SDS011;9498;51.862;19.460;2023-02-26T13:43:54;6.50;;;3.37;;
18738;SDS011;9498;51.862;19.460;2023-02-26T13:46:27;8.03;;;2.97;;
18738;SDS011;9498;51.862;19.460;2023-02-26T13:49:02;7.53;;;2.60;;
18738;SDS011;9498;51.862;19.460;2023-02-26T13:51:34;6.20;;;2.90;;
18738;SDS011;9498;51.862;19.460;2023-02-26T13:54:05;5.70;;;2.47;;
18738;SDS011;9498;51.862;19.460;2023-02-26T13:59:29;7.10;;;2.60;;
18738;SDS011;9498;51.862;19.460;2023-02-26T14:01:57;3.87;;;2.30;;
18738;SDS011;9498;51.862;19.460;2023-02-26T14:04:29;6.77;;;2.43;;
18738;SDS011;9498;51.862;19.460;2023-02-26T14:06:58;5.72;;;2.38;;
18738;SDS011;9498;51.862;19.460;2023-02-26T14:09:34;8.07;;;2.57;;
18738;SDS011;9498;51.862;19.460;2023-02-26T14:12:02;6.37;;;2.87;;
18738;SDS011;9498;51.862;19.460;2023-02-26T14:14:32;7.60;;;2.77;;
18738;SDS011;9498;51.862;19.460;2023-02-26T14:17:19;7.73;;;2.20;;
18738;SDS011;9498;51.862;19.460;2023-02-26T14:22:47;5.50;;;2.23;;
18738;SDS011;9498;51.862;19.460;2023-02-26T14:25:17;6.10;;;2.23;;
18738;SDS011;9498;51.862;19.460;2023-02-26T14:27:47;5.33;;;2.00;;
18738;SDS011;9498;51.862;19.460;2023-02-26T14:30:15;4.97;;;1.93;;
18738;SDS011;9498;51.862;19.460;2023-02-26T14:32:46;6.17;;;2.00;;
18738;SDS011;9498;51.862;19.460;2023-02-26T14:35:15;7.63;;;2.67;;
18738;SDS011;9498;51.862;19.460;2023-02-26T14:37:44;8.97;;;2.40;;
18738;SDS011;9498;51.862;19.460;2023-02-26T14:40:18;6.90;;;2.43;;
18738;SDS011;9498;51.862;19.460;2023-02-26T14:42:48;7.88;;;2.50;;
18738;SDS011;9498;51.862;19.460;2023-02-26T14:45:21;5.10;;;2.30;;
18738;SDS011;9498;51.862;19.460;2023-02-26T14:47:50;7.73;;;2.57;;
18738;SDS011;9498;51.862;19.460;2023-02-26T14:50:18;7.20;;;3.10;;
18738;SDS011;9498;51.862;19.460;2023-02-26T14:56:03;5.83;;;2.60;;
18738;SDS011;9498;51.862;19.460;2023-02-26T14:58:44;5.73;;;2.57;;
18738;SDS011;9498;51.862;19.460;2023-02-26T15:01:15;5.70;;;2.93;;
18738;SDS011;9498;51.862;19.460;2023-02-26T15:07:24;6.47;;;2.50;;
18738;SDS011;9498;51.862;19.460;2023-02-26T15:09:59;8.17;;;2.53;;
18738;SDS011;9498;51.862;19.460;2023-02-26T15:12:35;9.63;;;3.10;;
18738;SDS011;9498;51.862;19.460;2023-02-26T15:15:11;8.50;;;2.83;;
18738;SDS011;9498;51.862;19.460;2023-02-26T15:17:44;8.27;;;2.80;;
18738;SDS011;9498;51.862;19.460;2023-02-26T15:20:17;9.97;;;2.60;;
18738;SDS011;9498;51.862;19.460;2023-02-26T15:22:53;7.07;;;3.00;;
18738;SDS011;9498;51.862;19.460;2023-02-26T15:25:26;11.03;;;3.30;;
18738;SDS011;9498;51.862;19.460;2023-02-26T15:27:55;8.40;;;3.00;;